Date,TemperatureHighF,TemperatureAvgF,TemperatureLowF,DewpointHighF,DewpointAvgF,DewpointLowF,HumidityHigh,HumidityAvg,HumidityLow,PressureMaxIn,PressureMinIn,WindSpeedMaxMPH,WindSpeedAvgMPH,GustSpeedMaxMPH,PrecipitationSumIn
2013-2-1,23.2,14.2,4.3,21.9,4.3,-2.2,99,65,47,30.49,30.22,20,10,28,0.00
2013-2-2,33.6,25.3,19.2,26.2,20.1,14.7,99,81,71,30.23,30.08,21,10,28,0.00
2013-2-3,33.4,26.3,19.9,27.3,19.4,11.4,100,77,43,30.17,30.02,24,7,33,0.00
2013-2-4,49.5,33.8,24.8,31.0,26.7,20.6,93,76,45,30.06,29.82,18,10,27,0.00
2013-2-5,47.7,34.3,25.2,34.3,30.0,24.9,100,86,57,30.15,29.89,23,8,33,0.00
2013-2-6,52.0,36.9,24.1,37.3,31.4,23.7,100,83,48,30.27,30.11,14,4,17,0.00
2013-2-7,42.6,37.9,32.5,42.4,37.4,32.1,100,98,83,30.13,29.89,22,5,30,0.00
2013-2-8,36.1,30.8,28.6,35.9,29.0,25.4,100,93,85,30.43,30.05,21,9,30,0.00
2013-2-9,37.9,32.2,29.3,36.2,29.2,26.3,96,88,76,30.41,29.83,16,5,22,0.00
2013-2-10,52.5,44.7,36.7,51.9,43.2,34.4,100,95,59,29.84,29.36,30,14,42,11.54
2013-2-11,45.9,38.8,30.6,34.1,27.4,22.8,97,64,47,29.93,29.48,38,15,54,2.24
2013-2-12,44.2,32.8,25.9,33.0,29.4,25.5,100,88,57,29.95,29.72,11,3,14,0.00
2013-2-13,52.0,39.1,29.7,36.0,30.8,25.1,100,76,37,29.73,29.55,23,6,30,0.00
2013-2-14,48.7,39.4,32.7,36.6,33.8,30.4,100,82,52,29.83,29.55,21,8,34,0.00
2013-2-15,36.0,30.0,22.6,32.6,21.4,11.6,100,71,37,30.03,29.83,18,9,26,0.00
2013-2-16,32.7,23.6,16.2,16.6,13.0,7.7,85,65,36,30.03,29.93,16,7,24,0.00
2013-2-17,43.0,28.6,12.9,25.5,18.7,10.3,92,69,39,30.01,29.73,16,5,22,0.00
2013-2-18,57.2,43.1,33.1,48.7,35.8,24.7,91,75,68,29.73,29.39,36,18,45,16.00
2013-2-20,25.3,22.1,14.2,19.3,12.0,4.3,100,66,49,30.21,30.10,12,6,16,0.00
2013-2-21,30.6,24.0,15.3,30.3,22.5,15.1,100,94,80,30.14,29.63,27,9,35,0.07
2013-2-22,37.4,31.7,26.8,36.3,29.3,21.8,100,91,78,29.82,29.58,24,8,34,0.14
2013-2-23,32.2,25.8,18.5,23.3,21.0,18.3,100,82,63,29.82,29.76,14,5,19,0.00
2013-2-24,46.9,30.9,17.1,31.5,24.4,16.9,100,80,42,29.93,29.80,9,2,11,0.00
2013-2-25,48.6,36.3,26.4,37.4,32.5,26.0,100,87,56,29.90,29.56,21,8,26,0.00
2013-2-26,39.2,34.0,32.2,36.4,33.7,29.8,99,99,94,29.57,29.19,33,13,45,1.38
2013-2-27,34.0,33.3,32.0,33.7,33.0,31.6,99,99,99,29.97,29.21,13,8,18,1.38
2013-2-28,35.8,33.3,31.8,35.4,33.0,31.6,99,99,99,30.22,29.96,15,8,22,0.00